createdAt,value
2023-02-08T00:00:40.011Z,62.44
2023-02-08T00:03:07.120Z,61.83
2023-02-08T00:05:33.944Z,61.68
2023-02-08T00:08:00.587Z,64.26
2023-02-08T00:10:27.358Z,63.67
2023-02-08T00:12:54.032Z,63.65
2023-02-08T00:15:20.699Z,64.68
2023-02-08T00:17:47.620Z,66.95
2023-02-08T00:20:25.142Z,66.77
2023-02-08T00:22:53.442Z,67.21
2023-02-08T00:25:21.016Z,65.48
2023-02-08T00:27:47.848Z,65.59
2023-02-08T00:30:14.775Z,66.22
2023-02-08T00:32:41.741Z,65.65
2023-02-08T00:35:08.701Z,65.18
2023-02-08T00:37:35.350Z,65.03
2023-02-08T00:40:02.672Z,68.26
2023-02-08T00:42:30.257Z,67.69
2023-02-08T00:44:57.200Z,69.01
2023-02-08T00:47:24.585Z,68.40
2023-02-08T00:49:52.107Z,70.93
2023-02-08T00:52:19.552Z,70.95
2023-02-08T00:54:46.906Z,69.84
2023-02-08T00:57:13.894Z,71.36
2023-02-08T00:59:40.494Z,72.35
2023-02-08T01:02:07.304Z,70.76
2023-02-08T01:04:33.972Z,70.22
2023-02-08T01:07:00.651Z,68.93
2023-02-08T01:09:27.313Z,70.04
2023-02-08T01:11:54.006Z,68.75
2023-02-08T01:14:20.565Z,69.59
2023-02-08T01:16:47.199Z,71.07
2023-02-08T01:19:13.919Z,71.33
2023-02-08T01:21:42.391Z,69.86
2023-02-08T01:24:09.555Z,69.86
2023-02-08T01:26:36.875Z,68.68
2023-02-08T01:29:05.976Z,67.42
2023-02-08T01:31:35.593Z,65.53
2023-02-08T01:34:03.990Z,63.72
2023-02-08T01:36:31.681Z,63.09
2023-02-08T01:38:58.948Z,61.80
2023-02-08T01:41:28.924Z,61.86
2023-02-08T01:44:03.063Z,61.59
2023-02-08T01:46:33.169Z,61.17
2023-02-08T01:49:05.951Z,59.87
2023-02-08T01:51:39.322Z,60.01
2023-02-08T01:54:09.473Z,60.46
2023-02-08T01:56:39.160Z,59.83
2023-02-08T01:59:10.794Z,58.67
2023-02-08T02:01:38.964Z,58.59
2023-02-08T02:04:07.520Z,58.98
2023-02-08T02:06:40.217Z,58.91
2023-02-08T02:09:22.124Z,58.22
2023-02-08T02:11:51.707Z,58.23
2023-02-08T02:14:18.605Z,58.04
2023-02-08T02:16:46.290Z,57.34
2023-02-08T02:19:41.352Z,57.31
2023-02-08T02:22:31.242Z,58.17
2023-02-08T02:25:19.267Z,57.63
2023-02-08T02:28:08.776Z,57.83
2023-02-08T02:30:51.589Z,58.00
2023-02-08T02:33:47.385Z,58.47
2023-02-08T02:36:32.971Z,58.08
2023-02-08T02:39:18.244Z,57.72
2023-02-08T02:42:38.999Z,57.83
2023-02-08T02:45:15.083Z,57.70
2023-02-08T02:48:06.646Z,58.13
2023-02-08T02:50:49.947Z,57.21
2023-02-08T02:53:24.755Z,57.39
2023-02-08T02:56:01.944Z,57.13
2023-02-08T02:58:30.701Z,57.43
2023-02-08T03:00:59.495Z,58.25
2023-02-08T03:03:30.538Z,56.69
2023-02-08T03:06:12.310Z,57.45
2023-02-08T03:09:05.470Z,57.02
2023-02-08T03:11:36.717Z,56.75
2023-02-08T03:14:29.178Z,56.34
2023-02-08T03:17:11.057Z,56.23
2023-02-08T03:19:49.603Z,56.22
2023-02-08T03:22:38.870Z,55.83
2023-02-08T03:25:17.814Z,55.95
2023-02-08T03:28:01.891Z,56.19
2023-02-08T03:30:32.642Z,56.46
2023-02-08T03:33:10.720Z,56.72
2023-02-08T03:35:43.866Z,57.39
2023-02-08T03:38:40.409Z,58.35
2023-02-08T03:41:11.776Z,57.25
2023-02-08T03:43:49.190Z,57.40
2023-02-08T03:46:24.344Z,57.30
2023-02-08T03:48:57.016Z,57.26
2023-02-08T03:51:26.202Z,58.11
2023-02-08T03:53:55.003Z,57.96
2023-02-08T03:56:38.814Z,57.13
2023-02-08T03:59:12.781Z,58.10
2023-02-08T04:01:50.879Z,56.98
2023-02-08T04:04:19.538Z,58.05
2023-02-08T04:06:46.505Z,57.34
2023-02-08T04:09:13.273Z,56.29
2023-02-08T04:11:39.848Z,56.34
2023-02-08T04:14:06.450Z,57.14
2023-02-08T04:16:33.030Z,58.43
2023-02-08T04:18:59.661Z,57.42
2023-02-08T04:21:27.075Z,57.58
2023-02-08T04:23:53.711Z,57.74
2023-02-08T04:26:20.359Z,56.76
2023-02-08T04:28:46.972Z,57.49
2023-02-08T04:31:13.680Z,56.87
2023-02-08T04:33:40.401Z,56.88
2023-02-08T04:36:07.245Z,56.48
2023-02-08T04:38:33.936Z,56.58
2023-02-08T04:41:00.520Z,56.53
2023-02-08T04:43:27.203Z,57.07
2023-02-08T04:45:53.891Z,56.55
2023-02-08T04:48:21.100Z,56.03
2023-02-08T04:50:47.724Z,54.99
2023-02-08T04:53:14.290Z,54.71
2023-02-08T04:55:40.978Z,54.52
2023-02-08T04:58:07.575Z,54.89
2023-02-08T05:00:34.203Z,54.46
2023-02-08T05:03:00.840Z,54.85
2023-02-08T05:05:28.302Z,54.78
2023-02-08T05:07:54.870Z,54.60
2023-02-08T05:10:21.610Z,55.21
2023-02-08T05:12:48.371Z,55.43
2023-02-08T05:15:14.979Z,55.55
2023-02-08T05:17:41.576Z,56.12
2023-02-08T05:20:09.447Z,56.63
2023-02-08T05:22:36.361Z,56.31
2023-02-08T05:25:02.971Z,56.04
2023-02-08T05:27:29.635Z,55.98
2023-02-08T05:29:58.722Z,55.65
2023-02-08T05:32:25.840Z,55.51
2023-02-08T05:34:52.506Z,55.94
2023-02-08T05:37:19.176Z,55.58
2023-02-08T05:39:45.776Z,55.76
2023-02-08T05:42:12.422Z,55.64
2023-02-08T05:44:39.484Z,56.22
2023-02-08T05:47:06.175Z,55.71
2023-02-08T05:49:33.067Z,56.14
2023-02-08T05:51:59.638Z,56.33
2023-02-08T05:54:26.271Z,56.13
2023-02-08T05:56:52.902Z,55.87
2023-02-08T05:59:19.489Z,55.68
2023-02-08T06:01:46.107Z,55.63
2023-02-08T06:04:12.761Z,55.73
2023-02-08T06:06:39.424Z,55.42
2023-02-08T06:09:06.037Z,55.46
2023-02-08T06:11:32.745Z,56.06
2023-02-08T06:13:59.380Z,55.79
2023-02-08T06:16:26.024Z,55.98
2023-02-08T06:19:02.210Z,55.33
2023-02-08T06:21:28.869Z,55.33
2023-02-08T06:23:55.796Z,54.85
2023-02-08T06:26:23.702Z,55.27
2023-02-08T06:28:50.303Z,54.94
2023-02-08T06:31:16.920Z,55.64
2023-02-08T06:33:43.516Z,55.48
2023-02-08T06:36:10.252Z,56.02
2023-02-08T06:38:36.875Z,57.24
2023-02-08T06:41:03.515Z,57.62
2023-02-08T06:43:30.170Z,57.90
2023-02-08T06:45:56.874Z,57.95
2023-02-08T06:48:23.558Z,57.70
2023-02-08T06:50:53.853Z,57.51
2023-02-08T06:53:21.375Z,57.93
2023-02-08T06:55:51.280Z,58.07
2023-02-08T06:58:18.137Z,58.81
2023-02-08T07:00:47.948Z,57.80
2023-02-08T07:03:17.506Z,56.96
2023-02-08T07:05:58.769Z,57.52
2023-02-08T07:08:30.875Z,56.95
2023-02-08T07:10:57.526Z,57.20
2023-02-08T07:13:24.088Z,56.75
2023-02-08T07:15:50.715Z,55.67
2023-02-08T07:18:17.287Z,55.24
2023-02-08T07:20:43.901Z,55.66
2023-02-08T07:23:10.523Z,56.26
2023-02-08T07:25:37.136Z,55.30
2023-02-08T07:28:03.909Z,55.39
2023-02-08T07:30:30.663Z,55.38
2023-02-08T07:32:57.280Z,54.81
2023-02-08T07:35:23.877Z,54.67
2023-02-08T07:37:50.471Z,55.27
2023-02-08T07:40:17.206Z,54.64
2023-02-08T07:42:43.804Z,54.18
2023-02-08T07:45:26.962Z,53.26
2023-02-08T07:47:53.660Z,52.92
2023-02-08T07:50:20.259Z,53.29
2023-02-08T07:52:47.551Z,51.93
2023-02-08T07:55:17.800Z,51.03
2023-02-08T07:57:45.486Z,50.34
2023-02-08T08:00:13.276Z,49.91
2023-02-08T08:02:39.882Z,50.13
2023-02-08T08:05:07.244Z,49.42
2023-02-08T08:07:34.085Z,49.81
2023-02-08T08:10:00.702Z,48.94
2023-02-08T08:12:27.390Z,48.36
2023-02-08T08:14:54.108Z,47.46
2023-02-08T08:17:20.705Z,47.94
2023-02-08T08:19:47.293Z,47.52
2023-02-08T08:22:13.893Z,47.63
2023-02-08T08:24:40.463Z,46.50
2023-02-08T08:27:07.495Z,46.58
2023-02-08T08:29:36.338Z,47.07
2023-02-08T08:32:04.289Z,46.72
2023-02-08T08:34:31.634Z,46.95
2023-02-08T08:37:02.550Z,46.27
2023-02-08T08:39:29.268Z,46.46
2023-02-08T08:42:00.500Z,46.17
2023-02-08T08:44:27.187Z,45.30
2023-02-08T08:46:57.644Z,45.74
2023-02-08T08:49:25.550Z,45.78
2023-02-08T08:51:52.211Z,45.75
2023-02-08T08:54:19.207Z,45.86
2023-02-08T08:56:45.815Z,45.41
2023-02-08T08:59:12.571Z,45.09
2023-02-08T09:01:40.181Z,44.67
2023-02-08T09:04:06.802Z,45.78
2023-02-08T09:06:33.558Z,44.50
2023-02-08T09:09:00.136Z,44.55
2023-02-08T09:11:27.177Z,44.34
2023-02-08T09:13:56.150Z,44.48
2023-02-08T09:16:24.268Z,44.36
2023-02-08T09:18:51.329Z,45.37
2023-02-08T09:21:20.701Z,45.06
2023-02-08T09:23:50.285Z,45.49
2023-02-08T09:26:19.081Z,44.95
2023-02-08T09:28:46.151Z,45.17
2023-02-08T09:31:21.847Z,45.32
2023-02-08T09:33:49.950Z,44.98
2023-02-08T09:36:18.023Z,44.83
2023-02-08T09:38:45.466Z,44.27
2023-02-08T09:41:31.365Z,45.13
2023-02-08T09:44:22.618Z,44.04
2023-02-08T09:47:01.298Z,44.55
2023-02-08T09:49:33.887Z,45.38
2023-02-08T09:52:07.091Z,44.57
2023-02-08T09:54:37.765Z,44.05
2023-02-08T09:57:10.217Z,43.81
2023-02-08T09:59:40.826Z,44.40
2023-02-08T10:02:27.493Z,44.53
2023-02-08T10:05:05.362Z,44.49
2023-02-08T10:07:32.906Z,43.12
2023-02-08T10:10:02.456Z,42.72
2023-02-08T10:12:42.119Z,43.84
2023-02-08T10:15:20.502Z,43.13
2023-02-08T10:18:20.139Z,41.53
2023-02-08T10:21:05.316Z,42.28
2023-02-08T10:23:34.926Z,43.05
2023-02-08T10:26:18.045Z,41.63
2023-02-08T10:29:12.387Z,41.37
2023-02-08T10:31:45.085Z,41.03
2023-02-08T10:34:23.533Z,41.94
2023-02-08T10:36:50.118Z,41.18
2023-02-08T10:39:30.208Z,40.50
2023-02-08T10:41:56.894Z,41.36
2023-02-08T10:44:28.012Z,42.12
2023-02-08T10:47:22.395Z,42.43
2023-02-08T10:50:15.185Z,43.35
2023-02-08T10:52:41.975Z,42.49
2023-02-08T10:55:17.248Z,42.62
2023-02-08T10:57:47.917Z,43.91
2023-02-08T11:00:19.229Z,43.47
2023-02-08T11:02:47.244Z,43.24
2023-02-08T11:05:19.858Z,43.51
2023-02-08T11:07:46.825Z,41.75
2023-02-08T11:10:16.632Z,43.07
2023-02-08T11:12:53.768Z,42.39
2023-02-08T11:15:27.082Z,41.38
2023-02-08T11:17:57.609Z,40.60
2023-02-08T11:20:36.771Z,41.15
2023-02-08T11:23:06.401Z,41.79
2023-02-08T11:25:36.839Z,40.43
2023-02-08T11:28:04.715Z,41.24
2023-02-08T11:30:33.398Z,41.61
2023-02-08T11:33:19.679Z,42.06
2023-02-08T11:35:55.908Z,40.66
2023-02-08T11:38:27.513Z,39.58
2023-02-08T11:41:00.744Z,39.68
2023-02-08T11:43:31.185Z,40.00
2023-02-08T11:45:59.644Z,38.94
2023-02-08T11:48:32.058Z,39.80
2023-02-08T11:51:03.421Z,39.05
2023-02-08T11:53:36.633Z,38.62
2023-02-08T11:56:17.211Z,39.01
2023-02-08T11:59:16.473Z,39.12
2023-02-08T12:01:43.695Z,38.37
2023-02-08T12:04:12.751Z,36.37
2023-02-08T12:07:27.635Z,36.73
2023-02-08T12:10:24.574Z,37.00
2023-02-08T12:13:25.985Z,35.66
2023-02-08T12:16:21.923Z,36.47
2023-02-08T12:19:10.300Z,35.13
2023-02-08T12:21:48.467Z,35.50
2023-02-08T12:24:35.270Z,35.69
2023-02-08T12:27:38.635Z,34.91
2023-02-08T12:30:32.740Z,35.14
2023-02-08T12:33:10.422Z,35.94
2023-02-08T12:36:01.828Z,34.66
2023-02-08T12:39:19.901Z,35.05
2023-02-08T12:42:04.699Z,33.54
2023-02-08T12:45:00.778Z,34.55
2023-02-08T12:47:35.347Z,34.15
2023-02-08T12:50:19.962Z,35.11
2023-02-08T12:52:55.588Z,35.64
2023-02-08T12:55:29.238Z,35.48
2023-02-08T12:58:28.096Z,34.98
2023-02-08T13:00:58.182Z,34.73
2023-02-08T13:03:54.031Z,35.12
2023-02-08T13:06:25.376Z,34.85
2023-02-08T13:09:15.929Z,34.91
2023-02-08T13:11:59.994Z,35.31
2023-02-08T13:14:47.320Z,36.87
2023-02-08T13:17:27.854Z,37.38
2023-02-08T13:20:03.360Z,35.87
2023-02-08T13:22:40.628Z,36.55
2023-02-08T13:25:15.741Z,36.78
2023-02-08T13:27:42.681Z,37.21
2023-02-08T13:30:18.532Z,37.67
2023-02-08T13:32:47.696Z,36.80
2023-02-08T13:35:23.829Z,35.78
2023-02-08T13:38:03.086Z,35.05
2023-02-08T13:40:35.129Z,34.72
2023-02-08T13:43:23.360Z,34.86
2023-02-08T13:45:59.975Z,36.00
2023-02-08T13:48:27.249Z,33.31
2023-02-08T13:50:56.759Z,33.54
2023-02-08T13:53:38.652Z,33.56
2023-02-08T13:56:09.473Z,34.46
2023-02-08T13:58:48.052Z,33.02
2023-02-08T14:01:22.076Z,32.83
2023-02-08T14:04:07.215Z,34.14
2023-02-08T14:06:37.559Z,32.70
2023-02-08T14:09:39.317Z,33.66
2023-02-08T14:12:15.501Z,34.84
2023-02-08T14:14:42.117Z,34.51
2023-02-08T14:17:19.601Z,33.56
2023-02-08T14:19:59.928Z,35.14
2023-02-08T14:22:32.910Z,34.07
2023-02-08T14:25:18.161Z,33.91
2023-02-08T14:27:57.572Z,35.22
2023-02-08T14:30:30.399Z,33.65
2023-02-08T14:33:08.691Z,34.28
2023-02-08T14:35:38.977Z,35.12
2023-02-08T14:38:55.046Z,35.35
2023-02-08T14:41:44.047Z,35.14
2023-02-08T14:44:38.684Z,35.30
2023-02-08T14:47:17.466Z,35.63
2023-02-08T14:49:45.766Z,36.28
2023-02-08T14:52:15.841Z,35.03
2023-02-08T14:54:51.576Z,35.67
2023-02-08T14:57:36.919Z,35.20
2023-02-08T15:00:19.114Z,35.58
2023-02-08T15:02:47.068Z,36.36
2023-02-08T15:05:31.676Z,36.11
2023-02-08T15:08:00.053Z,37.11
2023-02-08T15:10:30.295Z,36.92
2023-02-08T15:13:00.646Z,36.74
2023-02-08T15:15:35.252Z,36.65
2023-02-08T15:18:03.424Z,36.43
2023-02-08T15:20:34.267Z,36.75
2023-02-08T15:23:04.534Z,36.96
2023-02-08T15:25:36.526Z,36.96
2023-02-08T15:28:17.786Z,37.78
2023-02-08T15:30:52.813Z,37.31
2023-02-08T15:33:19.725Z,37.81
2023-02-08T15:35:55.442Z,37.83
2023-02-08T15:38:23.401Z,37.77
2023-02-08T15:41:06.036Z,39.67
2023-02-08T15:43:34.285Z,39.06
2023-02-08T15:46:04.442Z,39.58
2023-02-08T15:48:32.828Z,38.56
2023-02-08T15:51:01.319Z,39.73
2023-02-08T15:53:28.855Z,39.21
2023-02-08T15:56:04.466Z,39.55
2023-02-08T15:58:38.805Z,39.83
2023-02-08T16:01:08.074Z,41.04
2023-02-08T16:03:36.767Z,40.19
2023-02-08T16:06:06.787Z,40.04
2023-02-08T16:08:40.087Z,40.63
2023-02-08T16:11:15.916Z,40.95
2023-02-08T16:13:48.197Z,41.74
2023-02-08T16:16:23.169Z,41.17
2023-02-08T16:19:13.599Z,41.33
2023-02-08T16:21:44.416Z,47.47
2023-02-08T16:24:10.967Z,46.59
2023-02-08T16:26:43.828Z,46.38
2023-02-08T16:29:33.483Z,46.46
2023-02-08T16:32:13.259Z,47.05
2023-02-08T16:34:41.769Z,46.47
2023-02-08T16:37:26.052Z,47.25
2023-02-08T16:39:59.098Z,47.17
2023-02-08T16:42:29.457Z,48.99
2023-02-08T16:45:12.820Z,49.83
2023-02-08T16:47:42.811Z,49.15
2023-02-08T16:50:13.461Z,49.51
2023-02-08T16:52:40.840Z,51.88
2023-02-08T16:55:11.360Z,52.15
2023-02-08T16:57:43.929Z,55.19
2023-02-08T17:00:16.597Z,55.58
2023-02-08T17:02:43.339Z,56.47
2023-02-08T17:05:10.957Z,57.99
2023-02-08T17:07:38.157Z,59.28
2023-02-08T17:10:07.097Z,60.62
2023-02-08T17:12:33.807Z,61.84
2023-02-08T17:15:00.415Z,62.34
2023-02-08T17:17:27.763Z,61.02
2023-02-08T17:19:54.448Z,58.89
2023-02-08T17:22:21.092Z,56.96
2023-02-08T17:24:47.777Z,57.31
2023-02-08T17:27:14.748Z,57.21
2023-02-08T17:29:41.657Z,57.70
2023-02-08T17:32:08.866Z,56.63
2023-02-08T17:34:36.668Z,56.71
2023-02-08T17:37:03.413Z,55.99
2023-02-08T17:39:30.113Z,55.61
2023-02-08T17:41:57.724Z,54.81
2023-02-08T17:44:24.376Z,53.82
2023-02-08T17:46:51.014Z,53.43
2023-02-08T17:49:17.633Z,52.16
2023-02-08T17:51:44.226Z,51.78
2023-02-08T17:54:12.426Z,51.49
2023-02-08T17:56:39.064Z,50.34
2023-02-08T17:59:05.822Z,49.67
2023-02-08T18:01:33.158Z,49.70
2023-02-08T18:04:00.755Z,49.99
2023-02-08T18:06:28.746Z,49.97
2023-02-08T18:08:55.736Z,49.25
2023-02-08T18:11:24.011Z,48.86
2023-02-08T18:13:53.032Z,48.46
2023-02-08T18:16:22.801Z,48.37
2023-02-08T18:18:49.614Z,48.76
2023-02-08T18:21:20.054Z,49.75
2023-02-08T18:23:49.531Z,49.71
2023-02-08T18:26:19.625Z,49.07
2023-02-08T18:28:46.887Z,49.29
2023-02-08T18:31:16.980Z,49.77
2023-02-08T18:33:43.958Z,50.30
2023-02-08T18:36:11.647Z,50.02
2023-02-08T18:38:40.180Z,49.61
2023-02-08T18:41:11.566Z,49.99
2023-02-08T18:43:39.415Z,50.14
2023-02-08T18:46:11.628Z,49.99
2023-02-08T18:48:39.579Z,49.87
2023-02-08T18:51:08.311Z,51.42
2023-02-08T18:53:38.244Z,51.22
2023-02-08T18:56:07.478Z,51.10
2023-02-08T18:58:34.658Z,50.81
2023-02-08T19:01:13.521Z,52.29
2023-02-08T19:03:40.495Z,50.65
2023-02-08T19:06:08.662Z,51.12
2023-02-08T19:08:37.576Z,51.03
2023-02-08T19:11:05.659Z,50.48
2023-02-08T19:13:32.607Z,50.87
2023-02-08T19:15:59.245Z,51.24
2023-02-08T19:18:25.879Z,51.54
2023-02-08T19:20:52.432Z,51.74
2023-02-08T19:23:19.017Z,51.46
2023-02-08T19:25:46.628Z,52.55
2023-02-08T19:28:13.272Z,52.27
2023-02-08T19:30:40.018Z,52.13
2023-02-08T19:33:06.620Z,51.44
2023-02-08T19:35:36.795Z,51.92
2023-02-08T19:38:03.493Z,52.61
2023-02-08T19:40:30.142Z,54.42
2023-02-08T19:42:56.909Z,53.90
2023-02-08T19:45:25.138Z,54.59
2023-02-08T19:47:52.030Z,53.80
2023-02-08T19:50:18.806Z,54.64
2023-02-08T19:52:45.484Z,54.01
2023-02-08T19:55:12.121Z,54.61
2023-02-08T19:57:40.034Z,54.66
2023-02-08T20:00:17.545Z,55.42
2023-02-08T20:02:50.284Z,55.42
2023-02-08T20:05:18.298Z,55.58
2023-02-08T20:07:45.115Z,55.71
2023-02-08T20:10:13.563Z,55.60
2023-02-08T20:12:41.086Z,55.97
2023-02-08T20:15:08.486Z,55.63
2023-02-08T20:17:35.354Z,56.35
2023-02-08T20:20:02.142Z,56.05
2023-02-08T20:22:29.122Z,56.24
2023-02-08T20:24:56.329Z,59.09
2023-02-08T20:27:22.984Z,58.86
2023-02-08T20:29:49.791Z,59.81
2023-02-08T20:32:18.246Z,60.29
2023-02-08T20:34:58.559Z,61.37
2023-02-08T20:37:25.756Z,60.78
2023-02-08T20:39:52.352Z,60.27
2023-02-08T20:42:19.153Z,59.61
2023-02-08T20:44:46.004Z,59.90
2023-02-08T20:47:13.916Z,60.48
2023-02-08T20:49:42.354Z,60.43
2023-02-08T20:52:09.080Z,60.45
2023-02-08T20:54:37.293Z,60.10
2023-02-08T20:57:04.108Z,59.63
2023-02-08T20:59:31.267Z,58.99
2023-02-08T21:01:58.235Z,59.18
2023-02-08T21:04:26.498Z,59.42
2023-02-08T21:06:53.329Z,59.76
2023-02-08T21:09:20.442Z,60.64
2023-02-08T21:11:47.501Z,59.40
2023-02-08T21:14:19.291Z,59.74
2023-02-08T21:16:56.240Z,59.33
2023-02-08T21:19:23.744Z,60.15
2023-02-08T21:21:51.935Z,60.74
2023-02-08T21:24:18.753Z,60.88
2023-02-08T21:26:45.477Z,61.39
2023-02-08T21:29:12.775Z,61.28
2023-02-08T21:31:39.705Z,61.42
2023-02-08T21:34:06.833Z,62.00
2023-02-08T21:36:34.291Z,62.61
2023-02-08T21:39:00.923Z,62.11
2023-02-08T21:41:30.506Z,61.88
2023-02-08T21:43:59.613Z,61.58
2023-02-08T21:46:28.397Z,61.58
2023-02-08T21:49:14.951Z,62.18
2023-02-08T21:52:00.318Z,62.45
2023-02-08T21:54:41.406Z,61.90
2023-02-08T21:57:19.096Z,62.92
2023-02-08T21:59:48.228Z,62.11
2023-02-08T22:02:25.628Z,62.54
2023-02-08T22:05:13.522Z,62.91
2023-02-08T22:07:53.842Z,63.91
2023-02-08T22:10:22.890Z,63.46
2023-02-08T22:12:49.892Z,64.15
2023-02-08T22:15:19.489Z,64.09
2023-02-08T22:17:47.046Z,64.16
2023-02-08T22:20:17.494Z,64.01
2023-02-08T22:22:45.462Z,64.07
2023-02-08T22:25:12.615Z,63.64
2023-02-08T22:27:39.259Z,63.61
2023-02-08T22:30:11.572Z,63.54
2023-02-08T22:32:42.257Z,64.39
2023-02-08T22:35:09.986Z,63.71
2023-02-08T22:37:36.901Z,63.36
2023-02-08T22:40:04.765Z,63.62
2023-02-08T22:42:31.716Z,63.41
2023-02-08T22:44:58.800Z,63.43
2023-02-08T22:47:25.509Z,63.27
2023-02-08T22:49:52.115Z,63.65
2023-02-08T22:52:18.738Z,63.64
2023-02-08T22:54:46.171Z,63.58
2023-02-08T22:57:12.965Z,63.59
2023-02-08T22:59:39.837Z,64.06
2023-02-08T23:02:06.764Z,64.00
2023-02-08T23:04:33.425Z,63.95
2023-02-08T23:07:00.389Z,64.24
2023-02-08T23:09:26.967Z,63.66
2023-02-08T23:11:53.766Z,64.70
2023-02-08T23:14:20.402Z,64.36
2023-02-08T23:16:47.060Z,64.44
2023-02-08T23:19:28.334Z,65.82
2023-02-08T23:21:58.491Z,66.20
2023-02-08T23:24:25.943Z,66.51
2023-02-08T23:26:52.652Z,65.39
2023-02-08T23:29:19.384Z,66.26
2023-02-08T23:31:46.293Z,65.82
2023-02-08T23:34:12.968Z,65.78
2023-02-08T23:36:39.621Z,65.97
2023-02-08T23:39:06.276Z,67.48
2023-02-08T23:41:33.188Z,67.68
2023-02-08T23:43:59.876Z,68.54
2023-02-08T23:46:28.529Z,68.06
2023-02-08T23:48:55.706Z,68.09
2023-02-08T23:51:24.545Z,68.31
2023-02-08T23:53:52.058Z,68.17
2023-02-08T23:56:27.590Z,67.75
2023-02-08T23:58:56.833Z,67.03
